Time;durP1;ratioP1;P1;durP2;ratioP2;P2;SDS_P1;SDS_P2;PMS_P1;PMS_P2;Temp;Humidity;BMP_temperature;BMP_pressure;BME280_temperature;BME280_humidity;BME280_pressure;Samples;Min_cycle;Max_cycle;Signal;HPM_P1;HPM_P2
2020/12/05 00:02:03;;;;;;;62.03;29.50;;;;;;;-144.15;0.00;65763.66;10356021;28;20068;-69
2020/12/05 00:07:01;;;;;;;169.70;28.67;;;;;;;-144.15;0.00;65763.66;10356178;28;20084;-69
2020/12/05 00:12:01;;;;;;;60.40;23.70;;;;;;;-144.15;0.00;65763.66;10356038;28;20068;-69
2020/12/05 00:16:59;;;;;;;116.78;25.13;;;;;;;-144.15;0.00;65763.66;10356010;28;20087;-69
2020/12/05 00:21:58;;;;;;;97.13;25.55;;;;;;;-144.15;0.00;65763.66;10355816;28;20071;-69
2020/12/05 00:26:56;;;;;;;126.35;28.05;;;;;;;-144.15;0.00;65763.66;10355642;28;20071;-69
2020/12/05 00:31:54;;;;;;;210.65;33.60;;;;;;;-144.15;0.00;65763.66;10355711;28;20048;-69
2020/12/05 00:36:52;;;;;;;109.43;24.27;;;;;;;-144.15;0.00;65763.66;10354127;28;20518;-69
2020/12/05 00:41:53;;;;;;;236.70;31.27;;;;;;;-144.15;0.00;65763.66;10360723;28;20454;-69
2020/12/05 00:46:51;;;;;;;97.90;22.48;;;;;;;-144.15;0.00;65763.66;10363253;28;20087;-69
2020/12/05 00:51:49;;;;;;;199.15;24.77;;;;;;;-144.15;0.00;65763.66;10361333;28;20040;-69
2020/12/05 00:56:49;;;;;;;242.00;26.77;;;;;;;-144.15;0.00;65763.66;10360968;28;20044;-69
2020/12/05 01:01:53;;;;;;;56.17;15.40;;;;;;;-95.99;0.00;65763.66;10362848;28;20445;-69
2020/12/05 01:06:51;;;;;;;33.22;16.52;;;;;;;-144.15;0.00;65763.66;10362534;28;20067;-69
2020/12/05 01:11:49;;;;;;;19.48;14.27;;;;;;;-144.15;0.00;65763.66;10333029;28;20501;-68
2020/12/05 01:16:47;;;;;;;22.00;17.38;;;;;;;-144.15;0.00;65763.66;10319795;28;20075;-70
2020/12/05 01:21:46;;;;;;;37.90;19.00;;;;;;;-144.15;0.00;65763.66;10317373;28;20450;-69
2020/12/05 01:26:44;;;;;;;34.63;16.95;;;;;;;-144.15;0.00;65763.66;10318681;28;20072;-68
2020/12/05 01:31:41;;;;;;;20.40;16.65;;;;;;;-144.15;0.00;65763.66;10320213;28;20437;-69
2020/12/05 01:36:43;;;;;;;22.77;19.00;;;;;;;-144.15;0.00;65763.66;10318735;28;20497;-67
2020/12/05 01:41:42;;;;;;;43.45;34.85;;;;;;;-144.15;0.00;65763.66;10320046;28;20540;-68
2020/12/05 01:46:42;;;;;;;22.38;18.40;;;;;;;-144.15;0.00;65763.66;10319555;28;20091;-67
2020/12/05 01:51:39;;;;;;;22.15;18.13;;;;;;;-144.15;0.00;65763.66;10317920;28;20044;-68
2020/12/05 01:56:38;;;;;;;25.92;23.10;;;;;;;-144.15;0.00;65763.66;10319446;28;20058;-68
2020/12/05 02:01:39;;;;;;;24.05;19.98;;;;;;;-95.99;0.00;65763.66;10318728;28;20085;-68
2020/12/05 02:07:05;;;;;;;20.10;17.08;;;;;;;-144.15;0.00;65763.66;10318997;28;20071;-68
2020/12/05 02:12:09;;;;;;;19.90;15.85;;;;;;;-144.15;0.00;65763.66;10318953;28;20501;-68
2020/12/05 02:17:10;;;;;;;23.90;18.83;;;;;;;-144.15;0.00;65763.66;10318728;28;20513;-69
2020/12/05 02:22:12;;;;;;;30.50;18.70;;;;;;;-144.15;0.00;65763.66;10318202;28;20048;-68
2020/12/05 02:27:11;;;;;;;21.00;15.90;;;;;;;-144.15;0.00;65763.66;10318070;28;20072;-68
2020/12/05 02:32:09;;;;;;;23.77;17.08;;;;;;;-144.15;0.00;65763.66;10316677;28;20068;-68
2020/12/05 02:37:11;;;;;;;18.80;15.50;;;;;;;-144.15;0.00;65763.66;10317633;28;20067;-68
2020/12/05 02:42:11;;;;;;;19.58;15.68;;;;;;;-144.15;0.00;65763.66;10317692;28;20083;-68
2020/12/05 02:47:09;;;;;;;22.25;17.67;;;;;;;-144.15;0.00;65763.66;10317172;28;20087;-68
2020/12/05 02:52:07;;;;;;;24.35;17.95;;;;;;;-144.15;0.00;65763.66;10317028;28;20040;-69
2020/12/05 02:57:05;;;;;;;30.23;21.95;;;;;;;-144.15;0.00;65763.66;10316758;28;20518;-69
2020/12/05 03:02:04;;;;;;;25.15;18.70;;;;;;;-144.15;0.00;65763.66;10314690;28;20049;-69
2020/12/05 03:07:05;;;;;;;22.02;17.65;;;;;;;-144.15;0.00;65763.66;10315647;28;20071;-69
2020/12/05 03:12:03;;;;;;;26.35;20.83;;;;;;;-144.15;0.00;65763.66;10316599;28;20494;-69
2020/12/05 03:17:01;;;;;;;29.02;22.75;;;;;;;-144.15;0.00;65763.66;10316353;28;20076;-69
2020/12/05 03:22:00;;;;;;;24.73;20.95;;;;;;;-144.15;0.00;65763.66;10315194;28;20063;-70
2020/12/05 03:26:57;;;;;;;105.22;37.33;;;;;;;-144.15;0.00;65763.66;10315821;28;20486;-70
2020/12/05 03:31:58;;;;;;;57.70;38.47;;;;;;;-144.15;0.00;65763.66;10316150;28;20083;-70
2020/12/05 03:36:56;;;;;;;44.40;33.03;;;;;;;-144.15;0.00;65763.66;10315097;28;20041;-70
2020/12/05 03:41:54;;;;;;;37.90;27.27;;;;;;;-144.15;0.00;65763.66;10315802;28;20037;-69
2020/12/05 03:46:52;;;;;;;27.70;21.80;;;;;;;156.96;0.00;65763.66;10315211;28;20076;-70
2020/12/05 03:51:50;;;;;;;32.28;23.75;;;;;;;-144.15;0.00;65763.66;10315629;28;20056;-69
2020/12/05 03:56:47;;;;;;;33.20;24.45;;;;;;;-144.15;0.00;65763.66;10315421;28;20481;-70
2020/12/05 04:01:46;;;;;;;36.00;26.25;;;;;;;-144.15;0.00;65763.66;10315686;28;20087;-70
2020/12/05 04:06:44;;;;;;;40.78;29.85;;;;;;;-144.15;0.00;65763.66;10315135;28;20091;-69
2020/12/05 04:11:41;;;;;;;44.20;30.38;;;;;;;-95.99;0.00;65763.66;10314274;28;20080;-70
2020/12/05 04:16:39;;;;;;;44.05;32.63;;;;;;;-116.82;0.00;65763.66;10319694;28;20482;-70
2020/12/05 04:21:38;;;;;;;41.05;30.48;;;;;;;-95.99;0.00;65763.66;10322913;28;20040;-69
2020/12/05 04:26:36;;;;;;;34.35;26.40;;;;;;;-111.61;0.00;65763.66;10321754;28;20080;-70
2020/12/05 04:31:33;;;;;;;38.28;27.92;;;;;;;-115.51;0.00;65763.66;10322527;28;20493;-70
2020/12/05 04:36:31;;;;;;;39.75;28.13;;;;;;;-112.91;0.00;65763.66;10320602;28;20049;-70
2020/12/05 04:41:30;;;;;;;30.73;25.10;;;;;;;-141.55;0.00;65763.66;10321244;28;20440;-70
2020/12/05 04:46:28;;;;;;;33.88;28.30;;;;;;;6.93;0.00;65763.66;10322049;28;20045;-70
2020/12/05 04:51:30;;;;;;;32.47;24.92;;;;;;;-112.91;0.00;65763.66;10321612;28;20047;-69
2020/12/05 04:56:36;;;;;;;31.83;23.58;;;;;;;-116.82;0.00;65763.66;10321466;28;20036;-69
2020/12/05 05:01:37;;;;;;;34.42;27.55;;;;;;;-136.34;0.00;65763.66;10323679;28;20095;-69
2020/12/05 05:06:34;;;;;;;41.72;30.92;;;;;;;6.93;0.00;65763.66;10321930;28;20103;-69
2020/12/05 05:11:35;;;;;;;49.10;34.15;;;;;;;-112.91;0.00;65763.66;10322754;28;20048;-69
2020/12/05 05:16:33;;;;;;;32.65;26.30;;;;;;;6.93;0.00;65763.66;10321518;28;20047;-70
2020/12/05 05:21:38;;;;;;;39.78;28.05;;;;;;;6.93;0.00;65763.66;10322221;28;20099;-69
2020/12/05 05:26:35;;;;;;;37.55;30.50;;;;;;;6.93;0.00;65763.66;10321295;28;20087;-69
2020/12/05 05:31:48;;;;;;;43.17;33.00;;;;;;;6.93;0.00;65763.66;10320943;28;20468;-69
2020/12/05 05:36:46;;;;;;;36.15;28.23;;;;;;;6.93;0.00;65763.66;10321791;28;20049;-70
2020/12/05 05:41:52;;;;;;;39.58;28.25;;;;;;;6.93;0.00;65763.66;10321720;28;20048;-70
2020/12/05 05:46:50;;;;;;;40.97;29.55;;;;;;;6.93;0.00;65763.66;10320360;28;20084;-70
2020/12/05 05:51:50;;;;;;;42.85;31.10;;;;;;;6.93;0.00;65763.66;10321212;28;20045;-70
2020/12/05 05:56:59;;;;;;;45.70;31.70;;;;;;;6.93;0.00;65763.66;10320992;28;20090;-70
2020/12/05 06:01:59;;;;;;;49.47;30.88;;;;;;;6.93;0.00;65763.66;10321244;28;20059;-70
2020/12/05 06:06:59;;;;;;;57.20;41.03;;;;;;;6.93;0.00;65763.66;10320542;28;20079;-69
2020/12/05 06:11:58;;;;;;;43.58;29.98;;;;;;;6.93;0.00;65763.66;10320437;28;20040;-69
2020/12/05 06:16:58;;;;;;;43.08;30.95;;;;;;;6.93;0.00;65763.66;10320202;28;20068;-67
2020/12/05 06:21:56;;;;;;;51.45;33.78;;;;;;;6.93;0.00;65763.66;10319444;28;20397;-69
2020/12/05 06:26:55;;;;;;;50.55;36.47;;;;;;;6.93;0.00;65763.66;10319728;28;20076;-69
2020/12/05 06:31:53;;;;;;;54.05;41.35;;;;;;;6.93;0.00;65763.66;10317545;28;20433;-70
2020/12/05 06:36:51;;;;;;;54.00;36.60;;;;;;;6.93;0.00;65763.66;10316894;28;20063;-69
2020/12/05 06:41:51;;;;;;;55.75;39.85;;;;;;;6.93;0.00;65763.66;10319258;28;20045;-70
2020/12/05 06:46:57;;;;;;;53.67;38.40;;;;;;;6.93;0.00;65763.66;10318850;28;20049;-70
2020/12/05 06:51:55;;;;;;;;;;;;;;;6.93;0.00;65763.66;10319116;28;20049;-70
2020/12/05 06:57:11;;;;;;;62.83;46.58;;;;;;;6.93;0.00;65763.66;10318196;28;19927;-70
2020/12/05 07:02:26;;;;;;;52.50;40.90;;;;;;;6.93;0.00;65763.66;10318289;28;20095;-70
2020/12/05 07:07:32;;;;;;;43.50;34.13;;;;;;;6.47;0.00;65763.66;10318082;28;20084;-70
2020/12/05 07:12:35;;;;;;;53.20;41.67;;;;;;;6.52;0.00;65763.66;10317967;28;20044;-70
2020/12/05 07:17:34;;;;;;;52.25;41.45;;;;;;;6.53;0.00;65763.66;10317820;28;20040;-70
2020/12/05 07:22:33;;;;;;;50.30;38.95;;;;;;;6.55;0.00;95939.41;10317739;28;20040;-69
2020/12/05 07:27:30;;;;;;;63.03;46.78;;;;;;;6.54;0.00;65763.66;10317575;28;20087;-70
2020/12/05 07:32:35;;;;;;;52.53;36.65;;;;;;;6.63;0.00;65907.41;10317368;28;20076;-68
2020/12/05 07:37:34;;;;;;;54.60;39.83;;;;;;;6.67;0.00;65763.66;10317331;28;20055;-71
2020/12/05 07:42:33;;;;;;;65.82;51.63;;;;;;;6.71;0.00;65907.41;10315836;28;20424;-71
2020/12/05 07:47:31;;;;;;;78.72;53.78;;;;;;;6.76;0.00;103278.44;10317006;28;20441;-70
2020/12/05 07:52:29;;;;;;;80.55;51.38;;;;;;;6.80;0.00;104626.41;10316773;28;20045;-70
2020/12/05 07:57:29;;;;;;;66.15;45.72;;;;;;;6.82;0.00;105126.06;10316699;28;20040;-71
2020/12/05 08:02:45;;;;;;;62.95;44.80;;;;;;;6.87;0.00;106765.59;10316983;28;20055;-67
2020/12/05 08:07:47;;;;;;;107.60;50.53;;;;;;;6.96;0.00;66631.03;10315656;28;20084;-69
2020/12/05 08:13:22;;;;;;;60.22;41.70;;;;;;;7.12;0.00;71293.25;10315687;28;20706;-71
2020/12/05 08:18:21;;;;;;;57.90;38.47;;;;;;;7.33;0.00;84565.13;10315573;28;20044;-71
2020/12/05 08:23:24;;;;;;;58.10;42.75;;;;;;;7.37;0.00;84565.13;10315569;28;20064;-70
2020/12/05 08:28:27;;;;;;;49.03;35.92;;;;;;;7.46;0.00;84565.13;10314620;28;20480;-70
2020/12/05 08:33:25;;;;;;;43.97;32.45;;;;;;;7.43;0.00;81276.50;10322357;28;20064;-68
2020/12/05 08:38:24;;;;;;;45.30;35.13;;;;;;;7.49;0.00;84565.13;10314338;28;20049;-70
2020/12/05 08:43:26;;;;;;;50.92;39.47;;;;;;;7.55;0.00;84565.13;10315309;28;20071;-70
2020/12/05 08:48:24;;;;;;;48.72;37.08;;;;;;;7.62;0.00;84565.13;10314867;28;20072;-69
2020/12/05 08:53:23;;;;;;;45.20;34.85;;;;;;;7.71;0.00;51117.25;10319952;28;20075;-69
2020/12/05 08:58:21;;;;;;;53.50;37.03;;;;;;;7.77;0.00;84565.13;10329678;28;20075;-68
2020/12/05 09:03:21;;;;;;;89.78;61.00;;;;;;;7.86;0.00;32058.38;10333299;28;20055;-67
2020/12/05 09:08:21;;;;;;;94.20;61.88;;;;;;;7.91;0.00;25251.44;10337916;28;20075;-70
2020/12/05 09:13:19;;;;;;;65.28;46.15;;;;;;;7.97;0.00;17082.97;10341324;28;20068;-70
2020/12/05 09:18:17;;;;;;;68.80;49.25;;;;;;;8.01;0.00;68108.94;10321343;28;20064;-69
2020/12/05 09:23:27;;;;;;;68.47;49.03;;;;;;;8.12;0.00;155217.72;10343198;28;20079;-69
2020/12/05 09:28:24;;;;;;;47.22;34.22;;;;;;;8.20;0.00;155237.81;10321727;28;20068;-67
2020/12/05 09:33:23;;;;;;;48.03;33.90;;;;;;;8.29;0.00;100812.22;10353126;28;20047;-68
2020/12/05 09:38:21;;;;;;;50.20;33.00;;;;;;;8.38;0.00;100144.13;10360364;28;20047;-68
2020/12/05 09:43:19;;;;;;;35.50;28.77;;;;;;;8.37;0.00;100143.34;10331784;28;20083;-71
2020/12/05 09:48:17;;;;;;;34.45;28.45;;;;;;;8.50;0.00;100164.38;10312029;28;20079;-68
2020/12/05 09:53:15;;;;;;;51.30;41.72;;;;;;;8.63;0.00;100184.59;10310081;28;20492;-68
2020/12/05 09:58:13;;;;;;;55.38;40.97;;;;;;;8.76;0.00;100205.66;10312475;28;20442;-69
2020/12/05 10:03:11;;;;;;;53.45;43.47;;;;;;;8.93;0.00;100231.53;10318503;28;20036;-69
2020/12/05 10:08:09;;;;;;;48.10;35.85;;;;;;;9.03;0.00;100247.75;10318129;28;20044;-69
2020/12/05 10:13:07;;;;;;;32.28;26.58;;;;;;;9.25;0.00;100283.38;10318161;28;20056;-69
2020/12/05 10:18:05;;;;;;;27.42;23.38;;;;;;;9.38;0.00;100304.41;10318105;28;20425;-68
2020/12/05 10:23:03;;;;;;;34.80;25.58;;;;;;;9.52;0.00;100810.31;10318055;28;20144;-68
2020/12/05 10:28:01;;;;;;;37.55;27.70;;;;;;;9.57;0.00;100808.59;10318188;28;20072;-68
2020/12/05 10:32:58;;;;;;;28.52;23.65;;;;;;;9.62;0.00;100806.09;10317158;28;20521;-69
2020/12/05 10:37:57;;;;;;;25.27;22.42;;;;;;;9.68;0.00;100799.03;10316953;28;20072;-70
2020/12/05 10:42:55;;;;;;;44.33;35.28;;;;;;;9.73;0.00;100795.72;10316632;28;20082;-70
2020/12/05 10:47:52;;;;;;;29.25;23.95;;;;;;;9.80;0.00;100786.59;10317637;28;20591;-67
2020/12/05 10:52:50;;;;;;;24.92;21.23;;;;;;;9.91;0.00;100793.03;10338059;28;20071;-65
2020/12/05 10:57:49;;;;;;;30.05;23.73;;;;;;;9.94;0.00;100777.38;10337457;28;20044;-65
2020/12/05 11:02:46;;;;;;;31.98;21.77;;;;;;;10.04;0.00;100778.50;10335120;28;20076;-69
2020/12/05 11:07:44;;;;;;;21.73;18.42;;;;;;;10.14;0.00;100779.59;10337812;28;20068;-67
2020/12/05 11:12:42;;;;;;;25.63;19.67;;;;;;;10.20;0.00;100778.66;10324673;28;20071;-66
2020/12/05 11:17:45;;;;;;;24.13;18.20;;;;;;;10.26;0.00;100776.97;10335017;28;20032;-64
2020/12/05 11:22:44;;;;;;;27.10;21.08;;;;;;;10.35;0.00;100791.63;10335178;28;20592;-65
2020/12/05 11:27:42;;;;;;;23.45;18.27;;;;;;;10.46;0.00;100787.34;10337272;28;20048;-65
2020/12/05 11:32:43;;;;;;;23.90;19.52;;;;;;;10.54;0.00;100777.31;10336169;28;20043;-64
2020/12/05 11:37:41;;;;;;;28.10;24.10;;;;;;;10.60;0.00;100772.94;10348943;28;20044;-65
2020/12/05 11:42:39;;;;;;;22.67;20.35;;;;;;;10.66;0.00;100507.81;10348640;28;20067;-65
2020/12/05 11:47:37;;;;;;;20.50;16.75;;;;;;;10.74;0.00;100768.19;10317110;28;20052;-66
2020/12/05 11:52:35;;;;;;;20.90;17.92;;;;;;;10.79;0.00;100528.03;10316984;28;20512;-69
2020/12/05 11:57:33;;;;;;;26.05;21.35;;;;;;;10.81;0.00;100531.31;10316827;28;20057;-68
2020/12/05 12:02:31;;;;;;;27.80;20.75;;;;;;;10.85;0.00;100537.78;10341591;28;20036;-68
2020/12/05 12:07:30;;;;;;;20.55;16.83;;;;;;;10.86;0.00;100539.38;10351846;28;20048;-67
2020/12/05 12:12:28;;;;;;;31.73;21.05;;;;;;;10.88;0.00;100542.66;10345030;28;20076;-67
2020/12/05 12:17:27;;;;;;;31.45;23.23;;;;;;;10.89;0.00;100544.28;10350455;28;20067;-67
2020/12/05 12:22:24;;;;;;;28.88;20.17;;;;;;;10.91;0.00;100547.50;10352038;28;20040;-67
2020/12/05 12:27:22;;;;;;;25.88;20.00;;;;;;;10.89;0.00;100544.28;10349067;28;20047;-68
2020/12/05 12:32:24;;;;;;;29.70;19.80;;;;;;;10.87;0.00;100541.00;10333415;28;20071;-67
2020/12/05 12:37:22;;;;;;;40.22;27.05;;;;;;;10.91;0.00;100547.50;10338870;28;20048;-66
2020/12/05 12:42:25;;;;;;;34.60;23.02;;;;;;;10.89;0.00;100544.28;10344355;28;20055;-66
2020/12/05 12:52:38;;;;;;;29.88;22.52;;;;;;;10.87;0.00;100540.19;10351200;28;20072;-65
2020/12/05 12:57:37;;;;;;;27.20;19.52;;;;;;;10.87;0.00;100541.00;10322862;28;20099;-66
2020/12/05 13:02:34;;;;;;;27.90;18.48;;;;;;;10.85;0.00;100536.97;10322922;28;20040;-66
2020/12/05 13:07:32;;;;;;;30.15;19.73;;;;;;;10.85;0.00;155892.13;10322313;28;20037;-67
2020/12/05 13:12:31;;;;;;;26.98;20.83;;;;;;;10.85;0.00;155892.13;10322519;28;20524;-67
2020/12/05 13:17:28;;;;;;;26.25;18.92;;;;;;;10.85;0.00;155890.84;10322152;28;20394;-68
2020/12/05 13:22:27;;;;;;;23.75;17.65;;;;;;;10.86;0.00;155894.63;10322490;28;20421;-68
2020/12/05 13:27:26;;;;;;;174.07;110.00;;;;;;;10.89;0.00;150734.13;10324794;28;20032;-67
2020/12/05 13:32:24;;;;;;;29.15;22.20;;;;;;;10.86;0.00;154157.88;10333136;28;20078;-68
2020/12/05 13:37:22;;;;;;;31.90;25.95;;;;;;;10.84;0.00;84915.03;10332893;28;20130;-66
2020/12/05 13:42:20;;;;;;;27.77;22.15;;;;;;;10.82;0.00;-15659.72;10333268;28;20080;-68
2020/12/05 13:47:34;;;;;;;26.98;20.58;;;;;;;10.79;0.00;84915.03;10338674;28;20079;-67
2020/12/05 13:52:32;;;;;;;26.27;21.85;;;;;;;10.81;0.00;84915.03;10338013;28;20064;-66
2020/12/05 13:57:29;;;;;;;52.60;37.67;;;;;;;10.79;0.00;84915.03;10326709;28;20458;-67
2020/12/05 14:02:27;;;;;;;37.65;30.23;;;;;;;10.76;0.00;84915.03;10332124;28;20067;-68
2020/12/05 14:07:28;;;;;;;30.13;22.95;;;;;;;10.76;0.00;106278.16;10324733;28;20078;-67
2020/12/05 14:12:26;;;;;;;23.42;20.65;;;;;;;10.72;0.00;104959.88;10342803;28;20083;-69
2020/12/05 14:17:24;;;;;;;24.08;20.17;;;;;;;10.68;0.00;103448.09;10320189;28;20072;-67
2020/12/05 14:22:22;;;;;;;25.08;18.25;;;;;;;10.71;0.00;104459.13;10339584;28;20068;-68
2020/12/05 14:27:20;;;;;;;22.85;17.75;;;;;;;10.72;0.00;65907.41;10349333;28;20048;-68
2020/12/05 14:32:18;;;;;;;28.25;18.48;;;;;;;10.70;0.00;65907.41;10321109;28;20095;-68
2020/12/05 14:37:16;;;;;;;25.45;19.10;;;;;;;10.68;0.00;66485.66;10318666;28;20375;-70
2020/12/05 14:42:13;;;;;;;30.58;19.45;;;;;;;10.66;0.00;65763.66;10324177;28;20083;-69
2020/12/05 14:47:12;;;;;;;33.80;25.98;;;;;;;10.84;0.00;65763.66;10318585;28;20071;-67
2020/12/05 14:52:10;;;;;;;37.70;27.20;;;;;;;10.84;0.00;65763.66;10318763;28;20090;-67
2020/12/05 14:57:07;;;;;;;36.95;24.20;;;;;;;10.84;0.00;65763.66;10349564;28;20087;-69
2020/12/05 15:02:05;;;;;;;28.23;22.42;;;;;;;10.84;0.00;65763.66;10358796;28;20417;-68
2020/12/05 15:07:04;;;;;;;26.80;22.30;;;;;;;10.84;0.00;65763.66;10358212;28;20040;-68
2020/12/05 15:12:01;;;;;;;34.95;24.75;;;;;;;10.84;0.00;65763.66;10358754;28;20079;-68
2020/12/05 15:17:02;;;;;;;29.27;22.52;;;;;;;10.84;0.00;65763.66;10358691;28;20481;-68
2020/12/05 15:22:02;;;;;;;40.22;29.45;;;;;;;10.84;0.00;65763.66;10356755;28;20055;-68
2020/12/05 15:27:00;;;;;;;31.58;21.05;;;;;;;10.84;0.00;65763.66;10358266;28;20052;-68
2020/12/05 15:31:58;;;;;;;38.13;24.25;;;;;;;10.84;0.00;65763.66;10357965;28;20091;-68
2020/12/05 15:36:56;;;;;;;118.85;80.35;;;;;;;10.84;0.00;65763.66;10357620;28;20516;-69
2020/12/05 15:41:53;;;;;;;43.60;31.45;;;;;;;10.84;0.00;65763.66;10357703;28;20508;-69
2020/12/05 15:46:56;;;;;;;136.60;83.63;;;;;;;10.84;0.00;65763.66;10356335;28;20051;-69
2020/12/05 15:51:53;;;;;;;77.07;52.30;;;;;;;10.84;0.00;65763.66;10357482;28;20079;-68
2020/12/05 15:56:51;;;;;;;80.20;51.08;;;;;;;10.84;0.00;65763.66;10357673;28;20394;-70
2020/12/05 16:01:50;;;;;;;54.33;41.13;;;;;;;10.84;0.00;65763.66;10357275;28;20095;-70
2020/12/05 16:06:50;;;;;;;56.70;38.70;;;;;;;119.11;0.00;65763.66;10357273;28;20455;-70
2020/12/05 16:11:47;;;;;;;134.55;92.22;;;;;;;113.88;0.00;65763.66;10362823;28;20086;-71
2020/12/05 16:16:45;;;;;;;161.85;101.30;;;;;;;106.05;0.00;65763.66;10365548;28;20063;-70
2020/12/05 16:21:43;;;;;;;128.77;80.57;;;;;;;104.75;0.00;65763.66;10365185;28;20051;-69
2020/12/05 16:26:48;;;;;;;160.45;97.00;;;;;;;106.05;0.00;65763.66;10365229;28;20401;-67
2020/12/05 16:31:46;;;;;;;184.18;119.10;;;;;;;10.84;0.00;65763.66;10363450;28;20083;-68
2020/12/05 16:36:44;;;;;;;122.88;85.25;;;;;;;98.23;0.00;65763.66;10364484;28;20102;-68
2020/12/05 16:41:42;;;;;;;137.13;87.60;;;;;;;94.31;0.00;65763.66;10364381;28;20487;-67
2020/12/05 16:46:41;;;;;;;117.47;79.25;;;;;;;60.39;0.00;65763.66;10363418;28;20059;-68
2020/12/05 16:51:39;;;;;;;112.30;75.35;;;;;;;76.05;0.00;65763.66;10362551;28;20044;-66
2020/12/05 16:56:37;;;;;;;78.57;48.47;;;;;;;74.74;0.00;65763.66;10331681;28;20068;-67
2020/12/05 17:01:35;;;;;;;80.70;56.13;;;;;;;66.91;0.00;65763.66;10335059;28;20080;-67
2020/12/05 17:06:33;;;;;;;97.20;67.35;;;;;;;61.70;0.00;65763.66;10331307;28;20064;-67
2020/12/05 17:11:31;;;;;;;107.80;75.45;;;;;;;10.84;0.00;65763.66;10340794;28;20479;-68
2020/12/05 17:16:29;;;;;;;96.60;77.72;;;;;;;59.09;0.00;65763.66;10337837;28;20082;-71
2020/12/05 17:21:27;;;;;;;87.97;65.78;;;;;;;53.87;0.00;65763.66;10332521;28;20501;-68
2020/12/05 17:26:26;;;;;;;96.70;86.25;;;;;;;-95.99;0.00;65763.66;10352851;28;20063;-67
2020/12/05 17:31:24;;;;;;;87.55;77.97;;;;;;;33.01;0.00;65763.66;10362228;28;20082;-67
2020/12/05 17:36:22;;;;;;;67.80;58.33;;;;;;;30.40;0.00;65763.66;10362676;28;20070;-65
2020/12/05 17:41:20;;;;;;;111.25;76.00;;;;;;;10.84;0.00;65763.66;10362367;28;20051;-68
2020/12/05 17:46:18;;;;;;;118.03;89.13;;;;;;;21.27;0.00;65763.66;10361824;28;20040;-68
2020/12/05 17:51:16;;;;;;;134.38;100.93;;;;;;;6.93;0.00;65763.66;10361242;28;20075;-67
2020/12/05 17:56:15;;;;;;;90.03;76.70;;;;;;;4.33;0.00;65763.66;10361177;28;20036;-66
2020/12/05 18:01:15;;;;;;;75.50;58.10;;;;;;;12.15;0.00;65763.66;10361715;28;20071;-67
2020/12/05 18:06:14;;;;;;;59.45;41.47;;;;;;;4.33;0.00;65763.66;10360569;28;20051;-69
2020/12/05 18:11:12;;;;;;;36.40;25.85;;;;;;;-3.50;0.00;65763.66;10361173;28;20492;-68
2020/12/05 18:16:10;;;;;;;42.00;30.67;;;;;;;-13.92;0.00;65763.66;10360407;28;20421;-68
2020/12/05 18:21:08;;;;;;;36.20;28.70;;;;;;;-19.13;0.00;65763.66;10354337;28;20036;-69
2020/12/05 18:26:06;;;;;;;40.95;33.53;;;;;;;-24.35;0.00;65763.66;10328462;28;20075;-68
2020/12/05 18:31:04;;;;;;;37.72;24.25;;;;;;;-29.56;0.00;65763.66;10324202;28;20611;-67
2020/12/05 18:36:02;;;;;;;43.83;29.80;;;;;;;10.84;0.00;65763.66;10332746;28;20441;-69
2020/12/05 18:41:00;;;;;;;79.65;58.25;;;;;;;-47.80;0.00;65763.66;10329922;28;20067;-69
2020/12/05 18:45:58;;;;;;;56.20;40.78;;;;;;;-41.28;0.00;65763.66;10320993;28;20067;-67
2020/12/05 18:50:56;;;;;;;35.10;25.38;;;;;;;-41.28;0.00;65763.66;10329389;28;20077;-68
2020/12/05 18:55:54;;;;;;;37.60;26.65;;;;;;;-53.01;0.00;65763.66;10325962;28;20072;-68
2020/12/05 19:00:51;;;;;;;50.67;36.40;;;;;;;-60.83;0.00;65763.66;10317915;28;20409;-68
2020/12/05 19:05:50;;;;;;;51.70;38.92;;;;;;;-53.01;0.00;65763.66;10317992;28;20509;-70
2020/12/05 19:10:49;;;;;;;47.03;35.35;;;;;;;-59.52;0.00;65763.66;10317392;28;20489;-67
2020/12/05 19:15:46;;;;;;;37.47;30.27;;;;;;;-66.03;0.00;65763.66;10316930;28;20661;-67
2020/12/05 19:20:45;;;;;;;41.45;31.17;;;;;;;-97.29;0.00;65763.66;10317043;28;20041;-69
2020/12/05 19:25:43;;;;;;;48.22;35.35;;;;;;;-118.12;0.00;65763.66;10316748;28;20405;-68
2020/12/05 19:30:41;;;;;;;53.22;35.00;;;;;;;-136.34;0.00;65763.66;10316762;28;20478;-69
2020/12/05 19:35:39;;;;;;;57.03;41.38;;;;;;;172.63;0.00;65763.66;10316419;28;20040;-67
2020/12/05 19:40:36;;;;;;;71.00;51.47;;;;;;;-141.55;0.00;65763.66;10328002;28;20048;-68
2020/12/05 19:45:36;;;;;;;39.45;28.38;;;;;;;-141.55;0.00;65763.66;10324383;28;20071;-69
2020/12/05 19:50:36;;;;;;;32.42;25.30;;;;;;;10.84;0.00;65763.66;10331627;28;20086;-69
2020/12/05 19:55:34;;;;;;;32.30;24.70;;;;;;;184.39;0.00;65763.66;10319717;28;20501;-68
2020/12/05 20:00:33;;;;;;;31.42;24.05;;;;;;;166.10;0.00;65763.66;10338083;28;20095;-69
2020/12/05 20:05:31;;;;;;;30.25;22.50;;;;;;;160.88;0.00;65763.66;10325115;28;20467;-68
2020/12/05 20:10:32;;;;;;;29.75;20.38;;;;;;;149.13;0.00;65763.66;10355661;28;20072;-68
2020/12/05 20:15:30;;;;;;;27.08;20.35;;;;;;;137.38;0.00;65763.66;10353559;28;20060;-68
2020/12/05 20:20:28;;;;;;;27.25;19.55;;;;;;;134.77;0.00;65763.66;10329648;28;20041;-68
2020/12/05 20:25:27;;;;;;;24.65;19.00;;;;;;;132.16;0.00;65763.66;10316337;28;20409;-68
2020/12/05 20:30:25;;;;;;;25.58;20.15;;;;;;;113.88;0.00;65763.66;10316022;28;20516;-67
2020/12/05 20:35:22;;;;;;;28.20;22.27;;;;;;;102.14;0.00;65763.66;10316215;28;20601;-68
2020/12/05 20:40:20;;;;;;;30.83;26.13;;;;;;;9.54;0.00;65763.66;10315914;28;20076;-68
2020/12/05 20:45:19;;;;;;;28.23;20.25;;;;;;;106.05;0.00;65763.66;10315796;28;20055;-68
2020/12/05 20:50:19;;;;;;;24.58;18.88;;;;;;;103.44;0.00;65763.66;10315898;28;20693;-69
2020/12/05 20:55:19;;;;;;;25.58;18.35;;;;;;;93.01;0.00;65763.66;10315854;28;20433;-69
2020/12/05 21:00:17;;;;;;;27.40;19.27;;;;;;;-144.15;0.00;65763.66;10321960;28;20087;-69
2020/12/05 21:05:16;;;;;;;26.88;18.77;;;;;;;69.52;0.00;65763.66;10323011;28;20048;-69
2020/12/05 21:10:13;;;;;;;24.77;18.00;;;;;;;70.83;0.00;65763.66;10349312;28;20070;-68
2020/12/05 21:15:12;;;;;;;24.13;18.77;;;;;;;66.91;0.00;65763.66;10358066;28;20032;-68
2020/12/05 21:20:09;;;;;;;26.45;19.08;;;;;;;70.83;0.00;65763.66;10341136;28;20068;-67
2020/12/05 21:25:08;;;;;;;27.90;19.25;;;;;;;9.54;0.00;65763.66;10320464;28;20063;-68
2020/12/05 21:30:07;;;;;;;27.25;20.40;;;;;;;59.09;0.00;65763.66;10322059;28;20055;-67
2020/12/05 21:35:05;;;;;;;29.45;18.42;;;;;;;9.54;0.00;65763.66;10321934;28;20521;-67
2020/12/05 21:40:03;;;;;;;25.45;16.65;;;;;;;51.26;0.00;65763.66;10321731;28;20071;-68
2020/12/05 21:45:03;;;;;;;25.35;17.73;;;;;;;35.61;0.00;65763.66;10321683;28;20047;-68
2020/12/05 21:50:04;;;;;;;31.65;19.33;;;;;;;-95.99;0.00;65763.66;10321693;28;20061;-68
2020/12/05 21:55:02;;;;;;;24.08;17.25;;;;;;;34.31;0.00;65763.66;10321117;28;20072;-70
2020/12/05 22:00:00;;;;;;;22.95;17.63;;;;;;;9.54;0.00;65763.66;10320504;28;20548;-67
2020/12/05 22:04:59;;;;;;;29.40;17.58;;;;;;;46.05;0.00;65763.66;10320301;28;20060;-68
2020/12/05 22:09:56;;;;;;;26.52;18.35;;;;;;;38.22;0.00;65763.66;10320314;28;20058;-68
2020/12/05 22:14:54;;;;;;;26.75;16.17;;;;;;;29.09;0.00;65763.66;10319699;28;20075;-67
2020/12/05 22:19:52;;;;;;;25.65;17.60;;;;;;;31.70;0.00;65763.66;10318721;28;20421;-68
2020/12/05 22:24:50;;;;;;;29.10;18.63;;;;;;;29.09;0.00;65763.66;10320968;28;20049;-68
2020/12/05 22:29:48;;;;;;;30.75;20.45;;;;;;;9.54;0.00;65763.66;10319919;28;20052;-69
2020/12/05 22:34:46;;;;;;;43.08;23.65;;;;;;;9.54;0.00;65763.66;10319716;28;20076;-68
2020/12/05 22:39:43;;;;;;;46.53;24.10;;;;;;;14.75;0.00;65763.66;10319193;28;20445;-69
2020/12/05 22:44:42;;;;;;;42.80;23.85;;;;;;;9.54;0.00;65763.66;10319059;28;20071;-69
2020/12/05 22:49:40;;;;;;;48.35;25.42;;;;;;;9.54;0.00;65763.66;10318062;28;20064;-68